Summertown, Tennessee
Current Conditions -  °F | °C
As of 4:15 PM on Saturday 25 Oct 2014 (Local Time) from KMRC Reporting Station
Scattered Clouds Scattered Clouds  
Wind Chill: 81°   Ceiling: Unl
Heat Index: 82°   Visibility: 10mi
Dew Point: 64°   Wind: 8mph
Humidity: 58%   Direction: 260°W
Pressure: 29.99"   Gusts: NA
Location:  35.44°N, 87.3°W
Report Text: KMRC 252115Z AUTO 26007KT 10SM SCT060 27/18 A2999 RMK
Loading
Personal Weather Stations






























Interactive Weather Map
Tropical Storm Tracking
New forecast layout! Learn more

10-Day Weather Forecast

Advertisements
Track Severe Weather on mobile